sensor_id;sensor_type;location;lat;lon;timestamp;P1;durP1;ratioP1;P2;durP2;ratioP2
20067;SDS011;10194;50.824;7.134;2022-09-24T00:01:23;339.13;;;305.37;;
20067;SDS011;10194;50.824;7.134;2022-09-24T00:03:53;334.83;;;301.40;;
20067;SDS011;10194;50.824;7.134;2022-09-24T00:06:21;338.43;;;304.87;;
20067;SDS011;10194;50.824;7.134;2022-09-24T00:08:49;336.43;;;303.07;;
20067;SDS011;10194;50.824;7.134;2022-09-24T00:11:19;336.73;;;303.00;;
20067;SDS011;10194;50.824;7.134;2022-09-24T00:13:46;330.53;;;297.03;;
20067;SDS011;10194;50.824;7.134;2022-09-24T00:16:14;327.03;;;294.10;;
20067;SDS011;10194;50.824;7.134;2022-09-24T00:18:42;325.27;;;292.10;;
20067;SDS011;10194;50.824;7.134;2022-09-24T00:21:18;324.47;;;291.60;;
20067;SDS011;10194;50.824;7.134;2022-09-24T00:23:52;336.83;;;303.17;;
20067;SDS011;10194;50.824;7.134;2022-09-24T00:26:21;337.63;;;304.10;;
20067;SDS011;10194;50.824;7.134;2022-09-24T00:29:06;346.43;;;312.20;;
20067;SDS011;10194;50.824;7.134;2022-09-24T00:31:35;342.93;;;309.10;;
20067;SDS011;10194;50.824;7.134;2022-09-24T00:34:01;344.50;;;310.53;;
20067;SDS011;10194;50.824;7.134;2022-09-24T00:36:27;340.37;;;306.87;;
20067;SDS011;10194;50.824;7.134;2022-09-24T00:38:54;339.33;;;305.60;;
20067;SDS011;10194;50.824;7.134;2022-09-24T00:41:24;339.40;;;305.77;;
20067;SDS011;10194;50.824;7.134;2022-09-24T00:43:54;345.00;;;310.83;;
20067;SDS011;10194;50.824;7.134;2022-09-24T00:46:42;346.03;;;312.10;;
20067;SDS011;10194;50.824;7.134;2022-09-24T00:49:12;350.87;;;316.40;;
20067;SDS011;10194;50.824;7.134;2022-09-24T00:51:41;348.37;;;314.00;;
20067;SDS011;10194;50.824;7.134;2022-09-24T00:54:11;350.30;;;316.03;;
20067;SDS011;10194;50.824;7.134;2022-09-24T00:56:48;356.80;;;322.37;;
20067;SDS011;10194;50.824;7.134;2022-09-24T00:59:15;352.90;;;317.93;;
20067;SDS011;10194;50.824;7.134;2022-09-24T01:01:44;349.17;;;314.43;;
20067;SDS011;10194;50.824;7.134;2022-09-24T01:04:13;347.93;;;313.13;;
20067;SDS011;10194;50.824;7.134;2022-09-24T01:06:41;347.00;;;312.70;;
20067;SDS011;10194;50.824;7.134;2022-09-24T01:09:07;340.87;;;306.93;;
20067;SDS011;10194;50.824;7.134;2022-09-24T01:20:16;355.97;;;321.30;;
20067;SDS011;10194;50.824;7.134;2022-09-24T01:34:02;369.40;;;334.40;;
20067;SDS011;10194;50.824;7.134;2022-09-24T01:36:31;372.07;;;337.27;;
20067;SDS011;10194;50.824;7.134;2022-09-24T01:38:59;373.93;;;339.13;;
20067;SDS011;10194;50.824;7.134;2022-09-24T01:41:27;372.50;;;337.57;;
20067;SDS011;10194;50.824;7.134;2022-09-24T01:43:53;371.83;;;336.93;;
20067;SDS011;10194;50.824;7.134;2022-09-24T01:46:19;372.13;;;336.90;;
20067;SDS011;10194;50.824;7.134;2022-09-24T01:48:46;375.80;;;340.47;;
20067;SDS011;10194;50.824;7.134;2022-09-24T01:51:14;376.43;;;341.27;;
20067;SDS011;10194;50.824;7.134;2022-09-24T01:59:26;366.97;;;332.07;;
20067;SDS011;10194;50.824;7.134;2022-09-24T02:04:38;375.77;;;340.80;;
20067;SDS011;10194;50.824;7.134;2022-09-24T02:07:16;385.67;;;350.30;;
20067;SDS011;10194;50.824;7.134;2022-09-24T02:09:48;392.37;;;357.03;;
20067;SDS011;10194;50.824;7.134;2022-09-24T02:12:19;393.73;;;358.23;;
20067;SDS011;10194;50.824;7.134;2022-09-24T02:14:55;391.10;;;355.43;;
20067;SDS011;10194;50.824;7.134;2022-09-24T02:17:32;386.20;;;350.77;;
20067;SDS011;10194;50.824;7.134;2022-09-24T02:20:03;385.20;;;349.37;;
20067;SDS011;10194;50.824;7.134;2022-09-24T02:22:35;390.53;;;354.80;;
20067;SDS011;10194;50.824;7.134;2022-09-24T02:25:03;384.10;;;348.83;;
20067;SDS011;10194;50.824;7.134;2022-09-24T02:27:30;387.23;;;351.77;;
20067;SDS011;10194;50.824;7.134;2022-09-24T02:29:56;382.67;;;347.13;;
20067;SDS011;10194;50.824;7.134;2022-09-24T02:32:30;380.73;;;345.37;;
20067;SDS011;10194;50.824;7.134;2022-09-24T02:34:59;383.27;;;347.83;;
20067;SDS011;10194;50.824;7.134;2022-09-24T02:37:33;379.57;;;343.93;;
20067;SDS011;10194;50.824;7.134;2022-09-24T02:40:02;381.53;;;346.10;;
20067;SDS011;10194;50.824;7.134;2022-09-24T02:42:31;386.97;;;351.30;;
20067;SDS011;10194;50.824;7.134;2022-09-24T02:44:56;394.47;;;358.77;;
20067;SDS011;10194;50.824;7.134;2022-09-24T02:47:24;388.87;;;353.47;;
20067;SDS011;10194;50.824;7.134;2022-09-24T02:49:53;392.00;;;356.60;;
20067;SDS011;10194;50.824;7.134;2022-09-24T02:52:20;398.73;;;363.20;;
20067;SDS011;10194;50.824;7.134;2022-09-24T02:54:47;401.10;;;365.27;;
20067;SDS011;10194;50.824;7.134;2022-09-24T02:57:14;398.33;;;362.73;;
20067;SDS011;10194;50.824;7.134;2022-09-24T02:59:42;397.07;;;361.37;;
20067;SDS011;10194;50.824;7.134;2022-09-24T03:02:09;398.87;;;363.47;;
20067;SDS011;10194;50.824;7.134;2022-09-24T03:04:35;401.40;;;365.40;;
20067;SDS011;10194;50.824;7.134;2022-09-24T03:07:01;405.00;;;369.23;;
20067;SDS011;10194;50.824;7.134;2022-09-24T03:09:27;402.07;;;366.47;;
20067;SDS011;10194;50.824;7.134;2022-09-24T03:11:52;397.63;;;362.13;;
20067;SDS011;10194;50.824;7.134;2022-09-24T03:14:18;395.87;;;360.17;;
20067;SDS011;10194;50.824;7.134;2022-09-24T03:16:44;394.23;;;358.77;;
20067;SDS011;10194;50.824;7.134;2022-09-24T03:19:10;394.80;;;359.53;;
20067;SDS011;10194;50.824;7.134;2022-09-24T03:21:35;395.73;;;360.27;;
20067;SDS011;10194;50.824;7.134;2022-09-24T03:24:01;395.17;;;359.90;;
20067;SDS011;10194;50.824;7.134;2022-09-24T03:26:28;394.47;;;359.23;;
20067;SDS011;10194;50.824;7.134;2022-09-24T03:28:53;396.93;;;361.13;;
20067;SDS011;10194;50.824;7.134;2022-09-24T03:31:19;398.67;;;363.17;;
20067;SDS011;10194;50.824;7.134;2022-09-24T03:33:48;397.53;;;362.40;;
20067;SDS011;10194;50.824;7.134;2022-09-24T03:36:15;399.63;;;363.70;;
20067;SDS011;10194;50.824;7.134;2022-09-24T03:38:50;398.10;;;362.83;;
20067;SDS011;10194;50.824;7.134;2022-09-24T03:41:20;397.23;;;362.03;;
20067;SDS011;10194;50.824;7.134;2022-09-24T03:43:47;398.27;;;362.67;;
20067;SDS011;10194;50.824;7.134;2022-09-24T03:46:13;398.97;;;363.83;;
20067;SDS011;10194;50.824;7.134;2022-09-24T03:48:41;397.57;;;362.03;;
20067;SDS011;10194;50.824;7.134;2022-09-24T03:51:12;392.47;;;357.17;;
20067;SDS011;10194;50.824;7.134;2022-09-24T03:53:42;388.63;;;353.50;;
20067;SDS011;10194;50.824;7.134;2022-09-24T03:56:09;390.77;;;355.77;;
20067;SDS011;10194;50.824;7.134;2022-09-24T03:58:36;393.43;;;358.33;;
20067;SDS011;10194;50.824;7.134;2022-09-24T04:01:06;391.37;;;356.37;;
20067;SDS011;10194;50.824;7.134;2022-09-24T04:03:33;397.63;;;361.80;;
20067;SDS011;10194;50.824;7.134;2022-09-24T04:06:00;396.77;;;361.60;;
20067;SDS011;10194;50.824;7.134;2022-09-24T04:08:26;401.97;;;366.10;;
20067;SDS011;10194;50.824;7.134;2022-09-24T04:10:52;400.47;;;364.67;;
20067;SDS011;10194;50.824;7.134;2022-09-24T04:13:19;400.33;;;365.23;;
20067;SDS011;10194;50.824;7.134;2022-09-24T04:15:45;400.20;;;364.80;;
20067;SDS011;10194;50.824;7.134;2022-09-24T04:18:12;394.80;;;359.73;;
20067;SDS011;10194;50.824;7.134;2022-09-24T04:20:38;396.70;;;361.33;;
20067;SDS011;10194;50.824;7.134;2022-09-24T04:23:05;400.03;;;364.87;;
20067;SDS011;10194;50.824;7.134;2022-09-24T04:25:32;395.23;;;360.47;;
20067;SDS011;10194;50.824;7.134;2022-09-24T04:28:02;398.47;;;363.47;;
20067;SDS011;10194;50.824;7.134;2022-09-24T04:30:31;400.17;;;364.87;;
20067;SDS011;10194;50.824;7.134;2022-09-24T04:32:59;400.73;;;365.10;;
20067;SDS011;10194;50.824;7.134;2022-09-24T04:35:27;402.77;;;367.30;;
20067;SDS011;10194;50.824;7.134;2022-09-24T04:37:55;403.03;;;367.50;;
20067;SDS011;10194;50.824;7.134;2022-09-24T04:40:22;403.93;;;368.07;;
20067;SDS011;10194;50.824;7.134;2022-09-24T04:42:48;404.37;;;368.03;;
20067;SDS011;10194;50.824;7.134;2022-09-24T04:45:14;405.87;;;370.27;;
20067;SDS011;10194;50.824;7.134;2022-09-24T04:47:43;402.53;;;367.17;;
20067;SDS011;10194;50.824;7.134;2022-09-24T04:50:09;408.20;;;372.83;;
20067;SDS011;10194;50.824;7.134;2022-09-24T04:52:36;411.10;;;375.57;;
20067;SDS011;10194;50.824;7.134;2022-09-24T04:55:03;410.37;;;374.83;;
20067;SDS011;10194;50.824;7.134;2022-09-24T04:57:29;412.40;;;376.53;;
20067;SDS011;10194;50.824;7.134;2022-09-24T04:59:59;406.40;;;370.90;;
20067;SDS011;10194;50.824;7.134;2022-09-24T05:02:25;410.97;;;375.17;;
20067;SDS011;10194;50.824;7.134;2022-09-24T05:04:50;407.93;;;372.47;;
20067;SDS011;10194;50.824;7.134;2022-09-24T05:07:16;408.53;;;372.90;;
20067;SDS011;10194;50.824;7.134;2022-09-24T05:09:42;408.27;;;372.53;;
20067;SDS011;10194;50.824;7.134;2022-09-24T05:12:07;405.77;;;370.47;;
20067;SDS011;10194;50.824;7.134;2022-09-24T05:14:33;413.77;;;378.00;;
20067;SDS011;10194;50.824;7.134;2022-09-24T05:16:59;411.33;;;375.67;;
20067;SDS011;10194;50.824;7.134;2022-09-24T05:19:25;412.13;;;376.27;;
20067;SDS011;10194;50.824;7.134;2022-09-24T05:21:50;410.97;;;374.93;;
20067;SDS011;10194;50.824;7.134;2022-09-24T05:24:16;412.80;;;376.70;;
20067;SDS011;10194;50.824;7.134;2022-09-24T05:26:45;413.33;;;377.70;;
20067;SDS011;10194;50.824;7.134;2022-09-24T05:29:29;410.30;;;374.07;;
20067;SDS011;10194;50.824;7.134;2022-09-24T05:31:55;404.97;;;368.83;;
20067;SDS011;10194;50.824;7.134;2022-09-24T05:34:20;396.83;;;361.63;;
20067;SDS011;10194;50.824;7.134;2022-09-24T05:36:46;396.27;;;361.00;;
20067;SDS011;10194;50.824;7.134;2022-09-24T05:39:12;399.53;;;364.33;;
20067;SDS011;10194;50.824;7.134;2022-09-24T05:41:38;397.23;;;362.17;;
20067;SDS011;10194;50.824;7.134;2022-09-24T05:44:04;393.40;;;358.50;;
20067;SDS011;10194;50.824;7.134;2022-09-24T05:46:30;392.93;;;357.67;;
20067;SDS011;10194;50.824;7.134;2022-09-24T05:48:57;389.53;;;354.07;;
20067;SDS011;10194;50.824;7.134;2022-09-24T05:51:23;380.20;;;345.40;;
20067;SDS011;10194;50.824;7.134;2022-09-24T05:53:49;373.33;;;338.07;;
20067;SDS011;10194;50.824;7.134;2022-09-24T05:56:15;374.10;;;339.10;;
20067;SDS011;10194;50.824;7.134;2022-09-24T05:58:41;373.50;;;338.27;;
20067;SDS011;10194;50.824;7.134;2022-09-24T06:01:07;385.40;;;350.07;;
20067;SDS011;10194;50.824;7.134;2022-09-24T06:03:33;382.13;;;346.37;;
20067;SDS011;10194;50.824;7.134;2022-09-24T06:05:59;381.80;;;346.07;;
20067;SDS011;10194;50.824;7.134;2022-09-24T06:08:26;377.73;;;342.73;;
20067;SDS011;10194;50.824;7.134;2022-09-24T06:11:12;378.77;;;343.57;;
20067;SDS011;10194;50.824;7.134;2022-09-24T06:13:38;374.17;;;339.17;;
20067;SDS011;10194;50.824;7.134;2022-09-24T06:16:05;371.97;;;336.87;;
20067;SDS011;10194;50.824;7.134;2022-09-24T06:18:36;370.30;;;335.23;;
20067;SDS011;10194;50.824;7.134;2022-09-24T06:21:08;381.43;;;346.23;;
20067;SDS011;10194;50.824;7.134;2022-09-24T06:23:36;379.33;;;344.13;;
20067;SDS011;10194;50.824;7.134;2022-09-24T06:26:03;381.97;;;346.97;;
20067;SDS011;10194;50.824;7.134;2022-09-24T06:28:31;382.37;;;347.23;;
20067;SDS011;10194;50.824;7.134;2022-09-24T06:30:59;382.57;;;347.57;;
20067;SDS011;10194;50.824;7.134;2022-09-24T06:33:25;382.57;;;346.57;;
20067;SDS011;10194;50.824;7.134;2022-09-24T06:35:52;381.70;;;345.97;;
20067;SDS011;10194;50.824;7.134;2022-09-24T06:38:18;380.83;;;345.23;;
20067;SDS011;10194;50.824;7.134;2022-09-24T06:40:45;381.73;;;346.57;;
20067;SDS011;10194;50.824;7.134;2022-09-24T06:43:12;377.33;;;342.33;;
20067;SDS011;10194;50.824;7.134;2022-09-24T06:45:39;371.77;;;336.57;;
20067;SDS011;10194;50.824;7.134;2022-09-24T06:48:07;365.33;;;330.53;;
20067;SDS011;10194;50.824;7.134;2022-09-24T06:50:37;367.70;;;332.50;;
20067;SDS011;10194;50.824;7.134;2022-09-24T06:53:06;369.70;;;334.40;;
20067;SDS011;10194;50.824;7.134;2022-09-24T06:55:33;381.13;;;345.90;;
20067;SDS011;10194;50.824;7.134;2022-09-24T06:58:10;387.43;;;352.00;;
20067;SDS011;10194;50.824;7.134;2022-09-24T07:00:39;393.17;;;357.67;;
20067;SDS011;10194;50.824;7.134;2022-09-24T07:03:08;397.37;;;362.07;;
20067;SDS011;10194;50.824;7.134;2022-09-24T07:05:40;400.23;;;364.60;;
20067;SDS011;10194;50.824;7.134;2022-09-24T07:08:06;396.87;;;361.47;;
20067;SDS011;10194;50.824;7.134;2022-09-24T07:10:31;401.03;;;365.40;;
20067;SDS011;10194;50.824;7.134;2022-09-24T07:12:57;407.37;;;371.07;;
20067;SDS011;10194;50.824;7.134;2022-09-24T07:15:23;404.33;;;368.40;;
20067;SDS011;10194;50.824;7.134;2022-09-24T07:17:53;404.10;;;368.20;;
20067;SDS011;10194;50.824;7.134;2022-09-24T07:20:20;404.93;;;368.73;;
20067;SDS011;10194;50.824;7.134;2022-09-24T07:22:46;400.63;;;363.77;;
20067;SDS011;10194;50.824;7.134;2022-09-24T07:25:12;383.27;;;347.50;;
20067;SDS011;10194;50.824;7.134;2022-09-24T07:27:38;370.33;;;335.00;;
20067;SDS011;10194;50.824;7.134;2022-09-24T07:30:07;372.73;;;337.43;;
20067;SDS011;10194;50.824;7.134;2022-09-24T07:32:35;370.23;;;334.97;;
20067;SDS011;10194;50.824;7.134;2022-09-24T07:35:01;368.87;;;333.57;;
20067;SDS011;10194;50.824;7.134;2022-09-24T07:37:26;359.97;;;325.27;;
20067;SDS011;10194;50.824;7.134;2022-09-24T07:39:52;356.27;;;321.07;;
20067;SDS011;10194;50.824;7.134;2022-09-24T07:42:18;360.73;;;325.53;;
20067;SDS011;10194;50.824;7.134;2022-09-24T07:44:45;353.83;;;319.33;;
20067;SDS011;10194;50.824;7.134;2022-09-24T07:47:12;348.20;;;314.03;;
20067;SDS011;10194;50.824;7.134;2022-09-24T07:49:39;346.03;;;312.13;;
20067;SDS011;10194;50.824;7.134;2022-09-24T07:52:06;342.93;;;309.30;;
20067;SDS011;10194;50.824;7.134;2022-09-24T07:54:34;350.43;;;315.83;;
20067;SDS011;10194;50.824;7.134;2022-09-24T07:57:00;350.37;;;315.93;;
20067;SDS011;10194;50.824;7.134;2022-09-24T07:59:26;352.70;;;317.97;;
20067;SDS011;10194;50.824;7.134;2022-09-24T08:01:54;350.80;;;316.07;;
20067;SDS011;10194;50.824;7.134;2022-09-24T08:04:20;350.70;;;315.83;;
20067;SDS011;10194;50.824;7.134;2022-09-24T08:06:45;343.40;;;308.97;;
20067;SDS011;10194;50.824;7.134;2022-09-24T08:09:13;328.87;;;294.60;;
20067;SDS011;10194;50.824;7.134;2022-09-24T08:11:40;313.93;;;281.10;;
20067;SDS011;10194;50.824;7.134;2022-09-24T08:14:06;308.93;;;276.13;;
20067;SDS011;10194;50.824;7.134;2022-09-24T08:16:32;303.20;;;270.47;;
20067;SDS011;10194;50.824;7.134;2022-09-24T08:18:58;287.70;;;252.93;;
20067;SDS011;10194;50.824;7.134;2022-09-24T08:21:25;302.97;;;269.83;;
20067;SDS011;10194;50.824;7.134;2022-09-24T08:23:52;299.07;;;266.13;;
20067;SDS011;10194;50.824;7.134;2022-09-24T08:26:17;291.90;;;257.13;;
20067;SDS011;10194;50.824;7.134;2022-09-24T08:28:43;289.70;;;244.60;;
20067;SDS011;10194;50.824;7.134;2022-09-24T08:31:10;285.67;;;228.20;;
20067;SDS011;10194;50.824;7.134;2022-09-24T08:33:37;281.97;;;211.50;;
20067;SDS011;10194;50.824;7.134;2022-09-24T08:36:05;280.33;;;215.33;;
20067;SDS011;10194;50.824;7.134;2022-09-24T08:38:33;284.60;;;218.10;;
20067;SDS011;10194;50.824;7.134;2022-09-24T08:46:34;277.53;;;209.43;;
20067;SDS011;10194;50.824;7.134;2022-09-24T08:49:29;281.73;;;215.13;;
20067;SDS011;10194;50.824;7.134;2022-09-24T08:54:57;277.07;;;202.20;;
20067;SDS011;10194;50.824;7.134;2022-09-24T08:57:31;275.13;;;196.50;;
20067;SDS011;10194;50.824;7.134;2022-09-24T09:00:12;278.77;;;205.83;;
20067;SDS011;10194;50.824;7.134;2022-09-24T09:02:46;275.47;;;197.90;;
20067;SDS011;10194;50.824;7.134;2022-09-24T09:08:40;278.20;;;209.37;;
20067;SDS011;10194;50.824;7.134;2022-09-24T09:11:18;277.63;;;200.57;;
20067;SDS011;10194;50.824;7.134;2022-09-24T09:13:53;274.67;;;203.87;;
20067;SDS011;10194;50.824;7.134;2022-09-24T09:16:29;275.47;;;204.27;;
20067;SDS011;10194;50.824;7.134;2022-09-24T09:19:26;276.03;;;207.70;;
20067;SDS011;10194;50.824;7.134;2022-09-24T09:21:59;291.63;;;226.97;;
20067;SDS011;10194;50.824;7.134;2022-09-24T09:24:48;294.63;;;242.73;;
20067;SDS011;10194;50.824;7.134;2022-09-24T09:27:17;301.80;;;268.70;;
20067;SDS011;10194;50.824;7.134;2022-09-24T09:29:49;325.60;;;291.27;;
20067;SDS011;10194;50.824;7.134;2022-09-24T09:32:30;336.47;;;302.27;;
20067;SDS011;10194;50.824;7.134;2022-09-24T09:35:27;299.57;;;264.97;;
20067;SDS011;10194;50.824;7.134;2022-09-24T09:38:10;299.23;;;262.87;;
20067;SDS011;10194;50.824;7.134;2022-09-24T09:40:51;327.23;;;292.43;;
20067;SDS011;10194;50.824;7.134;2022-09-24T09:43:30;341.20;;;306.40;;
20067;SDS011;10194;50.824;7.134;2022-09-24T09:46:04;356.20;;;320.87;;
20067;SDS011;10194;50.824;7.134;2022-09-24T09:48:49;341.50;;;306.90;;
20067;SDS011;10194;50.824;7.134;2022-09-24T09:51:20;349.30;;;314.17;;
20067;SDS011;10194;50.824;7.134;2022-09-24T09:53:56;353.10;;;317.93;;
20067;SDS011;10194;50.824;7.134;2022-09-24T09:56:25;355.23;;;319.50;;
20067;SDS011;10194;50.824;7.134;2022-09-24T09:59:02;357.67;;;321.87;;
20067;SDS011;10194;50.824;7.134;2022-09-24T10:01:45;350.63;;;315.33;;
20067;SDS011;10194;50.824;7.134;2022-09-24T10:07:16;353.87;;;318.97;;
20067;SDS011;10194;50.824;7.134;2022-09-24T10:09:43;355.50;;;320.10;;
20067;SDS011;10194;50.824;7.134;2022-09-24T10:14:41;355.63;;;320.53;;
20067;SDS011;10194;50.824;7.134;2022-09-24T10:17:10;347.87;;;313.33;;
20067;SDS011;10194;50.824;7.134;2022-09-24T10:19:42;349.97;;;315.43;;
20067;SDS011;10194;50.824;7.134;2022-09-24T10:22:16;350.13;;;315.30;;
20067;SDS011;10194;50.824;7.134;2022-09-24T10:24:50;347.40;;;312.67;;
20067;SDS011;10194;50.824;7.134;2022-09-24T10:27:19;338.50;;;304.60;;
20067;SDS011;10194;50.824;7.134;2022-09-24T10:29:59;346.80;;;312.07;;
20067;SDS011;10194;50.824;7.134;2022-09-24T10:32:55;360.63;;;324.70;;
20067;SDS011;10194;50.824;7.134;2022-09-24T10:35:30;338.43;;;304.43;;
20067;SDS011;10194;50.824;7.134;2022-09-24T10:37:59;348.37;;;313.57;;
20067;SDS011;10194;50.824;7.134;2022-09-24T10:40:30;343.57;;;309.03;;
20067;SDS011;10194;50.824;7.134;2022-09-24T10:43:05;344.37;;;309.43;;
20067;SDS011;10194;50.824;7.134;2022-09-24T10:51:16;331.90;;;297.87;;
20067;SDS011;10194;50.824;7.134;2022-09-24T10:56:46;327.77;;;294.70;;
20067;SDS011;10194;50.824;7.134;2022-09-24T11:05:03;351.90;;;317.17;;
20067;SDS011;10194;50.824;7.134;2022-09-24T11:16:52;353.33;;;318.57;;
20067;SDS011;10194;50.824;7.134;2022-09-24T11:19:54;350.73;;;315.83;;
20067;SDS011;10194;50.824;7.134;2022-09-24T11:27:55;352.13;;;317.30;;
20067;SDS011;10194;50.824;7.134;2022-09-24T11:36:42;346.93;;;312.30;;
20067;SDS011;10194;50.824;7.134;2022-09-24T11:54:01;350.93;;;316.57;;
20067;SDS011;10194;50.824;7.134;2022-09-24T11:56:32;345.90;;;311.90;;
20067;SDS011;10194;50.824;7.134;2022-09-24T12:01:37;350.00;;;315.90;;
20067;SDS011;10194;50.824;7.134;2022-09-24T12:07:27;346.90;;;312.30;;
20067;SDS011;10194;50.824;7.134;2022-09-24T12:16:06;347.23;;;312.80;;
20067;SDS011;10194;50.824;7.134;2022-09-24T12:18:43;344.83;;;310.43;;
20067;SDS011;10194;50.824;7.134;2022-09-24T12:21:24;340.90;;;306.33;;
20067;SDS011;10194;50.824;7.134;2022-09-24T12:23:58;345.33;;;310.70;;
20067;SDS011;10194;50.824;7.134;2022-09-24T12:26:50;343.50;;;309.03;;
20067;SDS011;10194;50.824;7.134;2022-09-24T12:29:27;345.87;;;311.13;;
20067;SDS011;10194;50.824;7.134;2022-09-24T12:38:03;327.93;;;294.57;;
20067;SDS011;10194;50.824;7.134;2022-09-24T12:51:51;343.00;;;308.73;;
20067;SDS011;10194;50.824;7.134;2022-09-24T12:56:50;329.20;;;295.83;;
20067;SDS011;10194;50.824;7.134;2022-09-24T12:59:23;339.70;;;305.90;;
20067;SDS011;10194;50.824;7.134;2022-09-24T13:01:51;330.37;;;297.00;;
20067;SDS011;10194;50.824;7.134;2022-09-24T13:06:44;337.63;;;303.90;;
20067;SDS011;10194;50.824;7.134;2022-09-24T13:12:00;342.80;;;308.70;;
20067;SDS011;10194;50.824;7.134;2022-09-24T13:14:53;342.50;;;308.60;;
20067;SDS011;10194;50.824;7.134;2022-09-24T13:17:26;341.67;;;307.67;;
20067;SDS011;10194;50.824;7.134;2022-09-24T13:19:58;338.00;;;304.30;;
20067;SDS011;10194;50.824;7.134;2022-09-24T13:22:33;336.93;;;303.33;;
20067;SDS011;10194;50.824;7.134;2022-09-24T13:27:34;335.03;;;301.13;;
20067;SDS011;10194;50.824;7.134;2022-09-24T13:30:13;337.20;;;303.67;;
20067;SDS011;10194;50.824;7.134;2022-09-24T13:36:28;337.50;;;303.73;;
20067;SDS011;10194;50.824;7.134;2022-09-24T13:45:02;331.87;;;298.07;;
20067;SDS011;10194;50.824;7.134;2022-09-24T13:47:35;331.17;;;297.83;;
20067;SDS011;10194;50.824;7.134;2022-09-24T13:50:16;343.00;;;308.87;;
20067;SDS011;10194;50.824;7.134;2022-09-24T13:52:53;350.40;;;315.07;;
20067;SDS011;10194;50.824;7.134;2022-09-24T13:55:43;341.50;;;307.57;;
20067;SDS011;10194;50.824;7.134;2022-09-24T13:58:30;347.53;;;313.40;;
20067;SDS011;10194;50.824;7.134;2022-09-24T14:00:59;353.33;;;318.63;;
20067;SDS011;10194;50.824;7.134;2022-09-24T14:05:57;353.03;;;318.43;;
20067;SDS011;10194;50.824;7.134;2022-09-24T14:08:23;350.50;;;315.90;;
20067;SDS011;10194;50.824;7.134;2022-09-24T14:10:51;346.80;;;312.47;;
20067;SDS011;10194;50.824;7.134;2022-09-24T14:13:33;347.53;;;313.27;;
20067;SDS011;10194;50.824;7.134;2022-09-24T14:16:11;340.10;;;306.10;;
20067;SDS011;10194;50.824;7.134;2022-09-24T14:18:44;349.87;;;315.33;;
20067;SDS011;10194;50.824;7.134;2022-09-24T14:21:19;333.20;;;299.43;;
20067;SDS011;10194;50.824;7.134;2022-09-24T14:26:34;344.80;;;310.57;;
20067;SDS011;10194;50.824;7.134;2022-09-24T14:29:28;335.70;;;301.73;;
20067;SDS011;10194;50.824;7.134;2022-09-24T14:32:19;336.13;;;302.33;;
20067;SDS011;10194;50.824;7.134;2022-09-24T14:35:11;346.63;;;312.03;;
20067;SDS011;10194;50.824;7.134;2022-09-24T14:37:50;348.27;;;313.73;;
20067;SDS011;10194;50.824;7.134;2022-09-24T14:40:28;349.20;;;314.87;;
20067;SDS011;10194;50.824;7.134;2022-09-24T14:42:58;353.20;;;317.70;;
20067;SDS011;10194;50.824;7.134;2022-09-24T14:45:34;351.67;;;317.07;;
20067;SDS011;10194;50.824;7.134;2022-09-24T14:48:03;352.23;;;317.50;;
20067;SDS011;10194;50.824;7.134;2022-09-24T14:50:41;352.57;;;317.87;;
20067;SDS011;10194;50.824;7.134;2022-09-24T14:55:57;349.13;;;314.63;;
20067;SDS011;10194;50.824;7.134;2022-09-24T14:58:32;347.97;;;313.47;;
20067;SDS011;10194;50.824;7.134;2022-09-24T15:01:13;345.50;;;311.00;;
20067;SDS011;10194;50.824;7.134;2022-09-24T15:03:43;348.13;;;313.13;;
20067;SDS011;10194;50.824;7.134;2022-09-24T15:08:55;343.73;;;309.47;;
20067;SDS011;10194;50.824;7.134;2022-09-24T15:11:36;341.27;;;306.83;;
20067;SDS011;10194;50.824;7.134;2022-09-24T15:14:18;344.97;;;310.57;;
20067;SDS011;10194;50.824;7.134;2022-09-24T15:16:51;341.63;;;306.53;;
20067;SDS011;10194;50.824;7.134;2022-09-24T15:19:19;346.30;;;311.53;;
20067;SDS011;10194;50.824;7.134;2022-09-24T15:21:50;345.10;;;310.27;;
20067;SDS011;10194;50.824;7.134;2022-09-24T15:24:20;347.63;;;313.00;;
20067;SDS011;10194;50.824;7.134;2022-09-24T15:29:30;333.43;;;299.53;;
20067;SDS011;10194;50.824;7.134;2022-09-24T15:31:56;343.67;;;309.03;;
20067;SDS011;10194;50.824;7.134;2022-09-24T15:34:22;349.27;;;314.13;;
20067;SDS011;10194;50.824;7.134;2022-09-24T15:36:52;345.07;;;310.30;;
20067;SDS011;10194;50.824;7.134;2022-09-24T15:39:20;339.77;;;304.97;;
20067;SDS011;10194;50.824;7.134;2022-09-24T15:41:47;344.10;;;309.50;;
20067;SDS011;10194;50.824;7.134;2022-09-24T15:44:18;344.00;;;309.03;;
20067;SDS011;10194;50.824;7.134;2022-09-24T15:46:49;336.50;;;302.20;;
20067;SDS011;10194;50.824;7.134;2022-09-24T15:49:16;332.87;;;298.60;;
20067;SDS011;10194;50.824;7.134;2022-09-24T15:52:08;323.00;;;289.07;;
20067;SDS011;10194;50.824;7.134;2022-09-24T15:54:52;310.27;;;277.10;;
20067;SDS011;10194;50.824;7.134;2022-09-24T15:57:20;313.17;;;279.40;;
20067;SDS011;10194;50.824;7.134;2022-09-24T15:59:46;305.97;;;272.73;;
20067;SDS011;10194;50.824;7.134;2022-09-24T16:02:17;312.70;;;278.97;;
20067;SDS011;10194;50.824;7.134;2022-09-24T16:04:47;288.97;;;248.90;;
20067;SDS011;10194;50.824;7.134;2022-09-24T16:07:13;285.97;;;238.80;;
20067;SDS011;10194;50.824;7.134;2022-09-24T16:09:39;290.50;;;253.20;;
20067;SDS011;10194;50.824;7.134;2022-09-24T16:12:05;287.10;;;249.53;;
20067;SDS011;10194;50.824;7.134;2022-09-24T16:14:31;291.10;;;248.17;;
20067;SDS011;10194;50.824;7.134;2022-09-24T16:16:57;294.07;;;249.97;;
20067;SDS011;10194;50.824;7.134;2022-09-24T16:19:22;290.40;;;241.10;;
20067;SDS011;10194;50.824;7.134;2022-09-24T16:21:48;285.93;;;231.87;;
20067;SDS011;10194;50.824;7.134;2022-09-24T16:24:18;284.90;;;220.13;;
20067;SDS011;10194;50.824;7.134;2022-09-24T16:26:44;280.03;;;212.27;;
20067;SDS011;10194;50.824;7.134;2022-09-24T16:29:10;280.60;;;217.37;;
20067;SDS011;10194;50.824;7.134;2022-09-24T16:31:36;277.00;;;208.00;;
20067;SDS011;10194;50.824;7.134;2022-09-24T16:34:02;276.57;;;202.40;;
20067;SDS011;10194;50.824;7.134;2022-09-24T16:36:28;281.20;;;208.27;;
20067;SDS011;10194;50.824;7.134;2022-09-24T16:38:55;277.90;;;202.33;;
20067;SDS011;10194;50.824;7.134;2022-09-24T16:41:21;274.57;;;207.20;;
20067;SDS011;10194;50.824;7.134;2022-09-24T16:43:47;277.37;;;201.57;;
20067;SDS011;10194;50.824;7.134;2022-09-24T16:46:13;275.47;;;199.50;;
20067;SDS011;10194;50.824;7.134;2022-09-24T16:48:39;278.83;;;210.03;;
20067;SDS011;10194;50.824;7.134;2022-09-24T16:51:07;276.20;;;210.83;;
20067;SDS011;10194;50.824;7.134;2022-09-24T16:53:35;280.53;;;215.20;;